createdAt,value
2022-11-13T00:01:25.439Z,11.40
2022-11-13T00:03:52.248Z,11.60
2022-11-13T00:06:20.163Z,11.50
2022-11-13T00:08:47.840Z,11.60
2022-11-13T00:11:19.631Z,11.40
2022-11-13T00:13:47.621Z,11.50
2022-11-13T00:16:20.542Z,11.40
2022-11-13T00:18:48.062Z,11.60
2022-11-13T00:21:17.941Z,11.40
2022-11-13T00:23:44.721Z,11.50
2022-11-13T00:26:16.428Z,11.80
2022-11-13T00:28:43.541Z,12.30
2022-11-13T00:31:12.325Z,12.40
2022-11-13T00:34:05.190Z,12.50
2022-11-13T00:36:28.068Z,12.70
2022-11-13T00:38:55.372Z,12.80
2022-11-13T00:41:23.317Z,12.60
2022-11-13T00:43:50.340Z,12.70
2022-11-13T00:46:17.077Z,12.70
2022-11-13T00:48:43.798Z,12.90
2022-11-13T00:51:10.893Z,12.80
2022-11-13T00:53:37.711Z,12.60
2022-11-13T00:56:04.887Z,12.60
2022-11-13T00:58:31.937Z,12.70
2022-11-13T01:01:06.336Z,12.50
2022-11-13T01:03:33.308Z,12.90
2022-11-13T01:06:00.408Z,13.10
2022-11-13T01:08:27.719Z,13.20
2022-11-13T01:10:54.629Z,13.20
2022-11-13T01:13:21.388Z,13.20
2022-11-13T01:15:48.086Z,13.40
2022-11-13T01:18:14.828Z,13.60
2022-11-13T01:20:41.606Z,13.60
2022-11-13T01:23:08.351Z,13.60
2022-11-13T01:25:35.456Z,13.60
2022-11-13T01:28:02.371Z,13.50
2022-11-13T01:30:29.111Z,13.60
2022-11-13T01:32:55.903Z,13.70
2022-11-13T01:35:22.695Z,13.90
2022-11-13T01:37:49.390Z,13.80
2022-11-13T01:40:16.208Z,13.70
2022-11-13T01:42:42.917Z,13.70
2022-11-13T01:45:47.225Z,13.80
2022-11-13T01:48:14.001Z,13.60
2022-11-13T01:50:40.905Z,13.80
2022-11-13T01:53:08.366Z,14.00
2022-11-13T01:55:35.269Z,13.90
2022-11-13T01:58:04.942Z,13.80
2022-11-13T02:00:31.711Z,13.90
2022-11-13T02:02:58.455Z,14.00
2022-11-13T02:05:25.318Z,14.00
2022-11-13T02:07:52.131Z,13.60
2022-11-13T02:10:19.075Z,13.50
2022-11-13T02:12:50.710Z,13.30
2022-11-13T02:15:21.276Z,13.20
2022-11-13T02:17:54.012Z,13.20
2022-11-13T02:20:40.672Z,13.20
2022-11-13T02:23:27.024Z,13.20
2022-11-13T02:25:54.801Z,13.20
2022-11-13T02:28:21.753Z,13.20
2022-11-13T02:30:48.518Z,13.30
2022-11-13T02:33:24.369Z,13.00
2022-11-13T02:35:51.606Z,12.90
2022-11-13T02:38:18.428Z,12.90
2022-11-13T02:40:45.290Z,12.80
2022-11-13T02:43:12.108Z,12.90
2022-11-13T02:45:38.859Z,12.90
2022-11-13T02:48:07.230Z,12.70
2022-11-13T02:50:35.514Z,12.70
2022-11-13T02:53:02.741Z,12.80
2022-11-13T02:55:29.658Z,12.90
2022-11-13T02:57:56.440Z,12.90
2022-11-13T03:00:23.267Z,12.70
2022-11-13T03:02:50.072Z,12.70
2022-11-13T03:05:16.966Z,12.80
2022-11-13T03:07:43.777Z,13.10
2022-11-13T03:10:11.655Z,13.00
2022-11-13T03:12:39.244Z,12.70
2022-11-13T03:15:08.047Z,12.50
2022-11-13T03:17:35.363Z,12.50
2022-11-13T03:20:02.298Z,12.50
2022-11-13T03:22:29.111Z,12.50
2022-11-13T03:24:55.870Z,12.50
2022-11-13T03:27:22.776Z,12.50
2022-11-13T03:29:49.498Z,12.60
2022-11-13T03:32:16.356Z,12.80
2022-11-13T03:34:43.078Z,12.70
2022-11-13T03:37:09.795Z,12.90
2022-11-13T03:39:36.559Z,13.10
2022-11-13T03:42:03.302Z,12.80
2022-11-13T03:44:30.042Z,12.70
2022-11-13T03:46:56.746Z,12.70
2022-11-13T03:49:23.542Z,12.60
2022-11-13T03:51:50.237Z,12.50
2022-11-13T03:54:17.134Z,12.40
2022-11-13T03:56:43.869Z,12.40
2022-11-13T03:59:10.627Z,12.30
2022-11-13T04:01:37.412Z,12.20
2022-11-13T04:04:04.337Z,12.20
2022-11-13T04:06:31.102Z,12.40
2022-11-13T04:08:57.902Z,12.40
2022-11-13T04:11:24.682Z,12.20
2022-11-13T04:13:51.366Z,12.30
2022-11-13T04:16:18.144Z,12.40
2022-11-13T04:18:44.903Z,12.50
2022-11-13T04:21:11.764Z,12.60
2022-11-13T04:23:38.585Z,12.80
2022-11-13T04:26:05.706Z,12.60
2022-11-13T04:28:32.738Z,12.70
2022-11-13T04:30:59.590Z,12.70
2022-11-13T04:33:26.386Z,12.90
2022-11-13T04:35:53.098Z,12.80
2022-11-13T04:38:19.840Z,12.70
2022-11-13T04:40:50.477Z,12.80
2022-11-13T04:43:17.195Z,12.80
2022-11-13T04:45:43.895Z,12.60
2022-11-13T04:48:10.637Z,12.50
2022-11-13T04:50:37.432Z,13.00
2022-11-13T04:53:04.152Z,13.30
2022-11-13T04:55:30.875Z,13.30
2022-11-13T04:57:57.660Z,12.70
2022-11-13T05:00:24.352Z,12.80
2022-11-13T05:02:51.085Z,13.00
2022-11-13T05:05:18.046Z,12.90
2022-11-13T05:07:44.803Z,12.80
2022-11-13T05:10:11.514Z,12.90
2022-11-13T05:12:38.350Z,13.00
2022-11-13T05:15:05.909Z,13.10
2022-11-13T05:17:32.632Z,13.00
2022-11-13T05:19:59.318Z,13.00
2022-11-13T05:22:26.120Z,13.20
2022-11-13T05:24:52.879Z,13.00
2022-11-13T05:27:19.586Z,12.90
2022-11-13T05:29:46.318Z,12.80
2022-11-13T05:32:13.124Z,12.70
2022-11-13T05:34:39.816Z,12.70
2022-11-13T05:37:06.513Z,12.80
2022-11-13T05:39:33.213Z,12.40
2022-11-13T05:41:59.908Z,12.40
2022-11-13T05:44:26.612Z,12.50
2022-11-13T05:46:53.323Z,12.60
2022-11-13T05:49:20.147Z,12.50
2022-11-13T05:51:46.910Z,12.30
2022-11-13T05:54:13.876Z,12.30
2022-11-13T05:56:40.637Z,12.30
2022-11-13T05:59:07.742Z,12.30
2022-11-13T06:01:39.710Z,12.50
2022-11-13T06:04:07.534Z,12.10
2022-11-13T06:06:34.468Z,12.00
2022-11-13T06:09:04.017Z,12.10
2022-11-13T06:11:31.111Z,12.10
2022-11-13T06:13:59.088Z,11.90
2022-11-13T06:16:33.980Z,11.30
2022-11-13T06:19:02.461Z,11.80
2022-11-13T06:21:32.931Z,11.70
2022-11-13T06:24:00.992Z,11.80
2022-11-13T06:26:33.456Z,11.70
2022-11-13T06:29:01.342Z,11.90
2022-11-13T06:31:30.562Z,11.70
2022-11-13T06:33:59.197Z,11.60
2022-11-13T06:36:31.324Z,11.50
2022-11-13T06:38:58.368Z,11.60
2022-11-13T06:41:27.250Z,11.60
2022-11-13T06:43:54.973Z,11.50
2022-11-13T06:46:25.900Z,11.60
2022-11-13T06:48:53.218Z,11.60
2022-11-13T06:51:22.657Z,11.70
2022-11-13T06:53:49.813Z,11.60
2022-11-13T06:56:17.813Z,11.50
2022-11-13T06:58:45.090Z,11.60
2022-11-13T07:01:14.907Z,11.70
2022-11-13T07:03:41.980Z,11.70
2022-11-13T07:06:17.300Z,11.60
2022-11-13T07:08:45.006Z,11.40
2022-11-13T07:11:18.188Z,11.40
2022-11-13T07:13:45.818Z,11.60
2022-11-13T07:16:17.396Z,11.50
2022-11-13T07:18:52.222Z,11.60
2022-11-13T07:21:19.514Z,11.70
2022-11-13T07:23:48.829Z,11.60
2022-11-13T07:26:15.718Z,11.40
2022-11-13T07:28:42.597Z,11.40
2022-11-13T07:31:11.339Z,11.20
2022-11-13T07:33:38.105Z,11.10
2022-11-13T07:36:05.498Z,11.00
2022-11-13T07:38:32.396Z,10.90
2022-11-13T07:41:00.061Z,11.00
2022-11-13T07:43:27.153Z,11.00
2022-11-13T07:45:55.416Z,11.00
2022-11-13T07:48:22.624Z,11.00
2022-11-13T07:50:50.414Z,11.10
2022-11-13T07:53:18.201Z,11.10
2022-11-13T07:55:45.005Z,11.00
2022-11-13T07:58:11.906Z,11.00
2022-11-13T08:00:39.019Z,11.10
2022-11-13T08:03:07.607Z,11.10
2022-11-13T08:05:34.681Z,11.10
2022-11-13T08:08:01.707Z,10.90
2022-11-13T08:10:28.899Z,10.70
2022-11-13T08:13:04.176Z,10.70
2022-11-13T08:15:32.301Z,10.80
2022-11-13T08:18:01.369Z,11.00
2022-11-13T08:20:30.103Z,11.20
2022-11-13T08:22:58.455Z,11.70
2022-11-13T08:25:25.397Z,11.60
2022-11-13T08:27:53.961Z,11.90
2022-11-13T08:30:21.469Z,11.90
2022-11-13T08:32:48.533Z,11.50
2022-11-13T08:35:19.136Z,11.30
2022-11-13T08:37:47.045Z,11.40
2022-11-13T08:40:14.090Z,11.50
2022-11-13T08:42:40.841Z,11.50
2022-11-13T08:45:08.504Z,11.60
2022-11-13T08:47:36.608Z,11.50
2022-11-13T08:50:04.746Z,11.70
2022-11-13T08:52:31.521Z,11.60
2022-11-13T08:54:58.312Z,11.40
2022-11-13T08:57:25.051Z,11.20
2022-11-13T08:59:51.834Z,11.10
2022-11-13T09:02:18.575Z,11.00
2022-11-13T09:04:45.372Z,10.80
2022-11-13T09:07:12.147Z,10.70
2022-11-13T09:09:38.927Z,10.60
2022-11-13T09:12:06.056Z,10.60
2022-11-13T09:14:32.843Z,10.50
2022-11-13T09:16:59.801Z,10.70
2022-11-13T09:19:27.028Z,10.70
2022-11-13T09:21:53.852Z,10.70
2022-11-13T09:24:20.824Z,11.00
2022-11-13T09:26:47.642Z,10.80
2022-11-13T09:29:14.378Z,10.80
2022-11-13T09:31:41.428Z,10.80
2022-11-13T09:34:09.090Z,10.70
2022-11-13T09:36:36.225Z,10.70
2022-11-13T09:39:04.550Z,10.70
2022-11-13T09:41:59.821Z,10.80
2022-11-13T09:44:42.968Z,10.70
2022-11-13T09:47:30.526Z,10.70
2022-11-13T09:50:12.836Z,10.60
2022-11-13T09:52:46.030Z,10.60
2022-11-13T09:55:15.869Z,10.70
2022-11-13T09:58:00.778Z,10.60
2022-11-13T10:00:29.546Z,10.60
2022-11-13T10:06:36.509Z,11.20
2022-11-13T10:09:33.910Z,11.40
2022-11-13T10:12:07.399Z,11.20
2022-11-13T10:14:46.005Z,11.10
2022-11-13T10:17:28.816Z,11.00
2022-11-13T10:19:57.655Z,10.90
2022-11-13T10:22:34.867Z,10.80
2022-11-13T10:25:25.231Z,10.70
2022-11-13T10:28:16.188Z,10.80
2022-11-13T10:30:50.473Z,10.80
2022-11-13T10:33:20.328Z,10.80
2022-11-13T10:35:53.219Z,10.70
2022-11-13T10:38:50.186Z,10.90
2022-11-13T10:41:19.801Z,10.90
2022-11-13T10:43:59.801Z,11.00
2022-11-13T10:46:29.969Z,11.00
2022-11-13T10:49:12.733Z,11.10
2022-11-13T10:51:39.811Z,11.00
2022-11-13T10:54:28.026Z,10.90
2022-11-13T10:57:03.627Z,11.00
2022-11-13T10:59:42.359Z,10.80
2022-11-13T11:02:19.580Z,10.90
2022-11-13T11:04:47.536Z,11.10
2022-11-13T11:07:20.626Z,11.30
2022-11-13T11:09:48.836Z,11.70
2022-11-13T11:12:30.942Z,11.70
2022-11-13T11:15:01.253Z,11.50
2022-11-13T11:17:49.703Z,11.60
2022-11-13T11:20:16.566Z,11.50
2022-11-13T11:22:45.807Z,11.40
2022-11-13T11:25:31.694Z,11.90
2022-11-13T11:28:14.627Z,12.10
2022-11-13T11:30:56.877Z,12.30
2022-11-13T11:33:31.390Z,12.50
2022-11-13T11:36:28.183Z,12.50
2022-11-13T11:39:09.986Z,12.30
2022-11-13T11:41:46.186Z,12.20
2022-11-13T11:44:24.530Z,12.10
2022-11-13T11:46:51.222Z,12.30
2022-11-13T11:49:19.986Z,12.40
2022-11-13T11:51:55.557Z,12.30
2022-11-13T11:54:41.931Z,12.40
2022-11-13T11:57:47.032Z,12.30
2022-11-13T12:00:21.065Z,12.10
2022-11-13T12:03:06.521Z,12.20
2022-11-13T12:05:47.911Z,12.10
2022-11-13T12:08:52.730Z,11.80
2022-11-13T12:11:33.562Z,11.70
2022-11-13T12:14:28.163Z,11.70
2022-11-13T12:17:27.964Z,11.80
2022-11-13T12:20:03.503Z,11.70
2022-11-13T12:22:48.007Z,11.50
2022-11-13T12:25:38.842Z,11.50
2022-11-13T12:28:24.876Z,11.60
2022-11-13T12:31:39.157Z,11.70
2022-11-13T12:34:09.865Z,11.80
2022-11-13T12:36:37.349Z,12.00
2022-11-13T12:39:27.498Z,12.20
2022-11-13T12:42:12.367Z,12.30
2022-11-13T12:44:51.953Z,12.10
2022-11-13T12:47:18.753Z,11.90
2022-11-13T12:49:45.693Z,12.20
2022-11-13T12:52:22.823Z,12.20
2022-11-13T12:54:50.101Z,12.20
2022-11-13T12:57:27.276Z,12.40
2022-11-13T12:59:58.990Z,12.50
2022-11-13T13:02:34.582Z,12.50
2022-11-13T13:08:25.876Z,12.50
2022-11-13T13:11:16.478Z,12.60
2022-11-13T13:13:51.980Z,12.90
2022-11-13T13:16:29.625Z,12.80
2022-11-13T13:19:32.035Z,13.20
2022-11-13T13:21:58.739Z,13.30
2022-11-13T13:24:31.822Z,13.20
2022-11-13T13:27:00.250Z,13.60
2022-11-13T13:29:28.744Z,13.50
2022-11-13T13:32:13.644Z,13.50
2022-11-13T13:35:09.992Z,13.60
2022-11-13T13:37:58.532Z,13.60
2022-11-13T13:40:51.586Z,14.10
2022-11-13T13:43:37.094Z,14.10
2022-11-13T13:46:29.536Z,14.00
2022-11-13T13:49:14.414Z,14.20
2022-11-13T13:51:47.927Z,14.60
2022-11-13T13:54:22.293Z,14.90
2022-11-13T13:56:49.446Z,14.70
2022-11-13T13:59:32.142Z,14.80
2022-11-13T14:02:01.446Z,14.70
2022-11-13T14:04:33.065Z,15.10
2022-11-13T14:07:02.019Z,15.70
2022-11-13T14:09:30.715Z,15.80
2022-11-13T14:12:17.260Z,15.50
2022-11-13T14:14:44.186Z,15.50
2022-11-13T14:17:12.488Z,15.20
2022-11-13T14:19:39.392Z,14.90
2022-11-13T14:22:08.663Z,15.00
2022-11-13T14:24:45.217Z,14.90
2022-11-13T14:27:18.796Z,15.40
2022-11-13T14:29:52.052Z,15.30
2022-11-13T14:32:25.497Z,15.40
2022-11-13T14:34:55.803Z,15.40
2022-11-13T14:37:23.178Z,15.30
2022-11-13T14:39:51.471Z,15.50
2022-11-13T14:42:21.428Z,15.70
2022-11-13T14:44:48.481Z,16.00
2022-11-13T14:47:29.354Z,15.70
2022-11-13T14:50:06.895Z,15.40
2022-11-13T14:52:36.598Z,15.10
2022-11-13T14:55:15.316Z,15.00
2022-11-13T14:57:51.518Z,15.10
2022-11-13T15:00:27.283Z,15.30
2022-11-13T15:02:55.429Z,15.50
2022-11-13T15:05:23.572Z,15.50
2022-11-13T15:07:51.442Z,15.20
2022-11-13T15:10:20.770Z,15.40
2022-11-13T15:12:48.846Z,15.80
2022-11-13T15:15:19.010Z,16.10
2022-11-13T15:17:47.944Z,16.00
2022-11-13T15:20:24.222Z,16.20
2022-11-13T15:22:52.559Z,16.60
2022-11-13T15:25:22.480Z,16.40
2022-11-13T15:27:49.642Z,16.40
2022-11-13T15:30:16.964Z,16.60
2022-11-13T15:32:43.917Z,16.40
2022-11-13T15:35:18.453Z,16.60
2022-11-13T15:37:45.612Z,16.30
2022-11-13T15:40:13.972Z,16.20
2022-11-13T15:42:41.496Z,16.10
2022-11-13T15:45:14.392Z,16.10
2022-11-13T15:47:41.990Z,15.90
2022-11-13T15:50:16.487Z,16.00
2022-11-13T15:52:54.127Z,15.80
2022-11-13T15:55:31.035Z,15.60
2022-11-13T15:57:58.577Z,15.60
2022-11-13T16:00:27.881Z,15.40
2022-11-13T16:02:56.479Z,15.00
2022-11-13T16:05:29.283Z,14.80
2022-11-13T16:07:57.052Z,14.80
2022-11-13T16:10:27.641Z,15.00
2022-11-13T16:12:54.437Z,14.90
2022-11-13T16:15:21.769Z,15.00
2022-11-13T16:17:56.040Z,15.00
2022-11-13T16:20:22.857Z,15.20
2022-11-13T16:22:50.054Z,15.20
2022-11-13T16:25:21.834Z,15.20
2022-11-13T16:27:48.648Z,15.00
2022-11-13T16:30:22.969Z,14.80
2022-11-13T16:32:49.757Z,14.60
2022-11-13T16:35:18.117Z,14.40
2022-11-13T16:37:44.967Z,14.20
2022-11-13T16:40:23.974Z,14.10
2022-11-13T16:42:51.643Z,13.80
2022-11-13T16:45:19.707Z,13.70
2022-11-13T16:47:47.110Z,13.60
2022-11-13T16:50:20.369Z,13.30
2022-11-13T16:52:47.078Z,13.20
2022-11-13T16:55:14.233Z,13.20
2022-11-13T16:57:41.414Z,13.20
2022-11-13T17:00:12.232Z,13.20
2022-11-13T17:02:39.061Z,13.40
2022-11-13T17:05:06.510Z,13.70
2022-11-13T17:07:33.314Z,14.00
2022-11-13T17:10:28.968Z,14.20
2022-11-13T17:12:52.194Z,14.20
2022-11-13T17:15:19.583Z,14.10
2022-11-13T17:17:47.035Z,14.10
2022-11-13T17:20:15.592Z,14.20
2022-11-13T17:22:48.139Z,14.20
2022-11-13T17:25:17.165Z,14.30
2022-11-13T17:27:44.130Z,14.30
2022-11-13T17:30:15.649Z,14.30
2022-11-13T17:32:42.450Z,14.30
2022-11-13T17:35:12.132Z,14.10
2022-11-13T17:37:39.621Z,14.30
2022-11-13T17:40:07.268Z,14.30
2022-11-13T17:42:34.191Z,14.20
2022-11-13T17:45:01.002Z,14.10
2022-11-13T17:47:27.713Z,14.10
2022-11-13T17:49:56.012Z,14.00
2022-11-13T17:52:22.757Z,14.00
2022-11-13T17:54:49.533Z,13.90
2022-11-13T17:57:16.275Z,13.80
2022-11-13T17:59:43.340Z,13.70
2022-11-13T18:02:11.885Z,13.60
2022-11-13T18:04:38.648Z,13.70
2022-11-13T18:07:05.477Z,13.70
2022-11-13T18:09:32.362Z,13.80
2022-11-13T18:11:59.128Z,13.70
2022-11-13T18:14:25.834Z,13.70
2022-11-13T18:16:52.575Z,13.50
2022-11-13T18:19:19.336Z,13.40
2022-11-13T18:21:46.105Z,13.10
2022-11-13T18:24:18.108Z,12.80
2022-11-13T18:26:45.562Z,12.50
2022-11-13T18:29:12.516Z,12.10
2022-11-13T18:31:40.019Z,12.00
2022-11-13T18:34:07.695Z,11.90
2022-11-13T18:36:35.021Z,11.70
2022-11-13T18:39:03.265Z,11.70
2022-11-13T18:41:30.948Z,11.60
2022-11-13T18:43:57.790Z,11.50
2022-11-13T18:46:25.608Z,11.50
2022-11-13T18:48:52.576Z,11.50
2022-11-13T18:51:21.786Z,11.40
2022-11-13T18:53:50.171Z,11.50
2022-11-13T18:56:20.553Z,11.40
2022-11-13T18:58:49.234Z,11.40
2022-11-13T19:01:22.774Z,11.40
2022-11-13T19:04:16.058Z,11.20
2022-11-13T19:06:39.088Z,11.20
2022-11-13T19:09:10.719Z,11.10
2022-11-13T19:11:37.517Z,11.10
2022-11-13T19:14:04.610Z,11.00
2022-11-13T19:16:42.561Z,11.00
2022-11-13T19:19:18.623Z,11.10
2022-11-13T19:21:46.087Z,11.30
2022-11-13T19:24:14.800Z,11.30
2022-11-13T19:26:42.917Z,11.20
2022-11-13T19:29:10.045Z,11.50
2022-11-13T19:31:36.861Z,11.50
2022-11-13T19:34:06.199Z,11.30
2022-11-13T19:36:34.129Z,11.20
2022-11-13T19:39:01.140Z,11.30
2022-11-13T19:41:29.291Z,11.40
2022-11-13T19:43:59.648Z,11.40
2022-11-13T19:46:27.167Z,11.60
2022-11-13T19:48:54.493Z,11.80
2022-11-13T19:51:23.624Z,11.70
2022-11-13T19:53:55.765Z,11.60
2022-11-13T19:56:24.305Z,11.70
2022-11-13T19:58:55.053Z,12.20
2022-11-13T20:01:24.763Z,12.30
2022-11-13T20:03:56.808Z,12.50
2022-11-13T20:06:24.196Z,12.00
2022-11-13T20:08:52.014Z,11.60
2022-11-13T20:11:18.851Z,11.60
2022-11-13T20:13:46.321Z,11.70
2022-11-13T20:16:15.395Z,11.40
2022-11-13T20:18:43.283Z,11.30
2022-11-13T20:21:10.870Z,11.40
2022-11-13T20:23:38.149Z,11.90
2022-11-13T20:26:08.098Z,12.40
2022-11-13T20:28:35.033Z,12.40
2022-11-13T20:31:04.922Z,12.50
2022-11-13T20:33:33.398Z,12.60
2022-11-13T20:36:01.484Z,12.30
2022-11-13T20:38:29.565Z,12.40
2022-11-13T20:40:56.543Z,12.20
2022-11-13T20:43:23.894Z,12.20
2022-11-13T20:45:50.718Z,12.10
2022-11-13T20:48:17.598Z,11.90
2022-11-13T20:50:44.954Z,11.70
2022-11-13T20:53:11.901Z,11.50
2022-11-13T20:55:39.695Z,11.50
2022-11-13T20:58:06.535Z,11.40
2022-11-13T21:00:33.385Z,11.60
2022-11-13T21:03:00.256Z,11.70
2022-11-13T21:05:27.950Z,11.70
2022-11-13T21:07:54.841Z,11.70
2022-11-13T21:10:21.604Z,11.70
2022-11-13T21:12:48.300Z,11.70
2022-11-13T21:15:15.104Z,11.80
2022-11-13T21:17:42.002Z,11.60
2022-11-13T21:20:09.290Z,11.70
2022-11-13T21:22:36.056Z,11.70
2022-11-13T21:25:02.850Z,11.60
2022-11-13T21:27:29.603Z,11.70
2022-11-13T21:29:56.406Z,12.00
2022-11-13T21:32:23.103Z,12.10
2022-11-13T21:34:49.861Z,11.80
2022-11-13T21:37:16.700Z,12.00
2022-11-13T21:39:43.543Z,12.10
2022-11-13T21:42:10.519Z,12.10
2022-11-13T21:44:37.741Z,12.00
2022-11-13T21:47:05.039Z,12.10
2022-11-13T21:49:31.753Z,12.20
2022-11-13T21:51:58.710Z,12.30
2022-11-13T21:54:25.492Z,11.90
2022-11-13T21:56:52.198Z,11.80
2022-11-13T21:59:18.987Z,11.80
2022-11-13T22:01:45.789Z,11.50
2022-11-13T22:04:12.697Z,11.20
2022-11-13T22:06:39.839Z,11.30
2022-11-13T22:09:12.139Z,11.20
2022-11-13T22:11:39.001Z,11.30
2022-11-13T22:14:06.233Z,11.30
2022-11-13T22:16:35.406Z,11.30
2022-11-13T22:19:04.038Z,11.30
2022-11-13T22:21:31.837Z,11.10
2022-11-13T22:23:59.856Z,11.00
2022-11-13T22:26:28.302Z,11.00
2022-11-13T22:28:56.709Z,11.10
2022-11-13T22:31:28.145Z,11.30
2022-11-13T22:33:55.606Z,11.30
2022-11-13T22:36:31.906Z,11.20
2022-11-13T22:38:59.310Z,11.10
2022-11-13T22:41:29.017Z,11.20
2022-11-13T22:44:05.177Z,11.20
2022-11-13T22:46:33.796Z,11.20
2022-11-13T22:49:04.938Z,11.10
2022-11-13T22:51:38.553Z,11.00
2022-11-13T22:54:10.454Z,11.20
2022-11-13T22:56:39.087Z,10.90
2022-11-13T22:59:07.751Z,11.00
2022-11-13T23:01:36.184Z,11.10
2022-11-13T23:04:05.405Z,11.00
2022-11-13T23:06:34.178Z,10.90
2022-11-13T23:09:01.774Z,11.00
2022-11-13T23:11:32.842Z,11.00
2022-11-13T23:14:03.939Z,11.00
2022-11-13T23:16:31.742Z,11.10
2022-11-13T23:18:59.824Z,11.00
2022-11-13T23:21:27.734Z,10.90
2022-11-13T23:23:55.325Z,10.70
2022-11-13T23:26:24.058Z,10.70
2022-11-13T23:28:50.814Z,10.60
2022-11-13T23:31:17.566Z,10.50
2022-11-13T23:33:44.337Z,10.60
2022-11-13T23:36:12.676Z,10.60
2022-11-13T23:38:39.762Z,10.50
2022-11-13T23:41:06.783Z,10.50
2022-11-13T23:44:02.125Z,10.50
2022-11-13T23:46:20.359Z,10.40
2022-11-13T23:48:47.114Z,10.30
2022-11-13T23:51:13.806Z,10.30
2022-11-13T23:53:40.511Z,10.30
2022-11-13T23:56:08.407Z,10.40
2022-11-13T23:58:35.356Z,10.30
